Aérodrome :
LOGIN :

S'inscrire | Disclaimer

   EN    FR    IT 

 










Légende :    VFR   VFR Marginal   IFR   IFR Intensif   IFR Très Intensif
Visi : 
Plafond : 
>= 8 km
>= 3000ft
5 à 8 km
1000 à 3000 ft
1500m à 5 km
500 à 1000 ft
800 à 1500m
200 à 500 ft
< 800m
< 200 ft
Symboles :   Orages  Brouillard  Fortes neiges  Fortes précipitations  Vent > 20 kt
SIGMETs :   Divers  Orages  Givrage  Turbulence  Onde Orograph.  Cendres Volcan.






- Altitude de l'aérodrome : 184 ft
- Code IATA : BRU


EBBR - Bruxelles

DERNIER METAR :
  • 211350Z 21021G31KT 180V240 9999 BKN025 08/03 Q0992 NOSIG

METARs EXPIRÉS :
  • 211320Z 21019KT 9999 SCT023 08/03 Q0992 NOSIG
  • 211250Z 21017G27KT 9999 SCT025 08/03 Q0993 NOSIG
  • 211220Z 21016KT 9999 BKN023 07/03 Q0993 NOSIG
  • 211150Z 21019G30KT 9999 BKN024 07/03 Q0993 NOSIG
  • 211120Z 21016KT 9999 BKN021 07/03 Q0993 NOSIG

TAF TAF EBBR
Valide du 21 à 12h jusqu'au 22 à 18h UTC


211102Z 2112/2218 21016G28KT 9999 SCT020 SCT035
TEMPO 2117/2120 3500 RA BKN014
PROB30
TEMPO 2118/2122 20020G35KT
TEMPO 2122/2202 3500 RA SHRA BKN008 BKN012
BECMG 2123/2201 32010KT
BECMG 2201/2203 23007KT



MET'MAP, la Météo Aéronautique d'un coup d'oeil ! - Copyright ORBIFLY Décembre 2007 - Disclaimer

ORBIFLY MET'MAP TEAM :

Programmation & Développement : Alexandra Zaïnal
Sur une idée originale de : Baudouin d'Aumeries
Assistance à la programmation : Marc-Olivier Méhu
Soutien technique & logistique : Manuel Goepfert

Contact : metmap@orbifly.com




SOURCES & CREDITS :

   NOAA